logo
Search for airport 
image banner adimage banner adimage banner ad
image banner ad

FLWS - Mwaleshi

Located in Mwaleshi, Zambia

ICAO - , IATA -

Data provided by Airmate  

General information

Coordinates: S11°58'2" E32°20'39"
Elevation is 1953 feet MSL.
Magnetic variation is -4° East
View others Airports in Eastern Province

Operational data

Special qualification required
Current time UTC:
Current local time:
Weather at : - ( 0 km )
METAR: MMPQ 191647Z 00000KT 6SM SKC 32/22 A2980 RMK HZY MSGTX MMMX
View NOTAMs / SUP AIP / TFR affecting this airport [VIEW]
Communications frequencies: [VIEW]

Runways:

RWY identifierQFULength (ft)Width (ft)SurfaceLDA (ft)
32321°309384DIRT
14141°309384DIRT

Airport contact information

Address: Mwaleshi Zambia

Satellite view of FLWS